createdAt,value
2019-05-22T00:00:35.774Z,0.00
2019-05-22T00:01:35.769Z,0.00
2019-05-22T00:02:35.766Z,0.00
2019-05-22T00:03:35.761Z,0.00
2019-05-22T00:04:35.757Z,0.00
2019-05-22T00:05:35.755Z,0.00
2019-05-22T00:06:35.745Z,0.00
2019-05-22T00:07:35.740Z,0.00
2019-05-22T00:08:35.728Z,0.00
2019-05-22T00:09:35.724Z,0.00
2019-05-22T00:10:35.745Z,0.00
2019-05-22T00:11:35.756Z,0.00
2019-05-22T00:12:46.129Z,0.00
2019-05-22T00:13:35.699Z,0.00
2019-05-22T00:14:35.690Z,0.00
2019-05-22T00:15:38.600Z,0.00
2019-05-22T00:16:35.681Z,0.00
2019-05-22T00:17:35.677Z,0.00
2019-05-22T00:18:35.685Z,0.00
2019-05-22T00:19:35.669Z,0.00
2019-05-22T00:20:35.655Z,0.00
2019-05-22T00:21:35.649Z,0.00
2019-05-22T00:22:35.645Z,0.00
2019-05-22T00:23:35.635Z,0.00
2019-05-22T00:24:35.637Z,0.00
2019-05-22T00:25:35.630Z,0.00
2019-05-22T00:26:35.623Z,0.00
2019-05-22T00:27:35.613Z,0.00
2019-05-22T00:28:35.607Z,0.00
2019-05-22T00:29:35.597Z,0.00
2019-05-22T00:30:35.602Z,0.00
2019-05-22T00:31:35.589Z,0.00
2019-05-22T00:32:35.581Z,0.00
2019-05-22T00:33:36.408Z,0.00
2019-05-22T00:34:35.574Z,0.00
2019-05-22T00:35:35.603Z,0.00
2019-05-22T00:36:35.561Z,0.00
2019-05-22T00:37:35.555Z,0.00
2019-05-22T00:38:35.547Z,0.00
2019-05-22T00:39:35.537Z,0.00
2019-05-22T00:40:35.530Z,0.00
2019-05-22T00:41:35.523Z,0.00
2019-05-22T00:42:35.520Z,0.00
2019-05-22T00:43:35.512Z,0.00
2019-05-22T00:44:35.509Z,0.00
2019-05-22T00:45:35.504Z,0.00
2019-05-22T00:46:35.497Z,0.00
2019-05-22T00:47:35.488Z,0.00
2019-05-22T00:48:35.488Z,0.00
2019-05-22T00:49:35.485Z,0.00
2019-05-22T00:50:35.472Z,0.00
2019-05-22T00:51:35.527Z,0.00
2019-05-22T00:52:35.455Z,0.00
2019-05-22T00:53:35.448Z,0.00
2019-05-22T00:54:35.442Z,0.00
2019-05-22T00:55:35.438Z,0.00
2019-05-22T00:56:35.436Z,0.00
2019-05-22T00:57:35.429Z,0.00
2019-05-22T00:58:35.425Z,0.00
2019-05-22T00:59:35.417Z,0.00
2019-05-22T01:00:35.419Z,0.00
2019-05-22T01:01:35.402Z,0.00
2019-05-22T01:02:35.399Z,0.00
2019-05-22T01:03:35.394Z,0.00
2019-05-22T01:04:35.395Z,0.00
2019-05-22T01:05:35.384Z,0.00
2019-05-22T01:06:35.370Z,0.00
2019-05-22T01:07:35.415Z,0.00
2019-05-22T01:08:35.359Z,0.00
2019-05-22T01:09:35.362Z,0.00
2019-05-22T01:10:35.350Z,0.00
2019-05-22T01:11:35.341Z,0.00
2019-05-22T01:12:35.331Z,0.00
2019-05-22T01:13:35.325Z,0.00
2019-05-22T01:14:42.779Z,0.00
2019-05-22T01:15:35.314Z,0.00
2019-05-22T01:16:35.313Z,0.00
2019-05-22T01:17:35.307Z,0.00
2019-05-22T01:18:35.299Z,0.00
2019-05-22T01:19:35.292Z,0.00
2019-05-22T01:20:35.291Z,0.00
2019-05-22T01:21:35.286Z,0.00
2019-05-22T01:22:35.280Z,0.00
2019-05-22T01:23:35.266Z,0.00
2019-05-22T01:24:35.257Z,0.00
2019-05-22T01:25:35.251Z,0.00
2019-05-22T01:26:35.244Z,0.00
2019-05-22T01:27:35.236Z,0.00
2019-05-22T01:28:35.236Z,0.00
2019-05-22T01:29:35.236Z,0.00
2019-05-22T01:30:35.226Z,0.00
2019-05-22T01:31:35.220Z,0.00
2019-05-22T01:32:35.211Z,0.00
2019-05-22T01:33:35.203Z,0.00
2019-05-22T01:34:35.203Z,0.00
2019-05-22T01:35:35.197Z,0.00
2019-05-22T01:36:35.190Z,0.00
2019-05-22T01:37:35.178Z,0.00
2019-05-22T01:38:35.176Z,0.00
2019-05-22T01:39:35.165Z,0.00
2019-05-22T01:40:35.160Z,0.00
2019-05-22T01:41:35.154Z,0.00
2019-05-22T01:42:35.152Z,0.00
2019-05-22T01:43:35.144Z,0.00
2019-05-22T01:44:35.133Z,0.00
2019-05-22T01:45:35.127Z,0.00
2019-05-22T01:46:35.119Z,0.00
2019-05-22T01:47:35.111Z,0.00
2019-05-22T01:48:35.111Z,0.00
2019-05-22T01:49:35.104Z,0.00
2019-05-22T01:50:35.094Z,0.00
2019-05-22T01:51:35.089Z,0.00
2019-05-22T01:52:35.084Z,0.00
2019-05-22T01:53:35.079Z,0.00
2019-05-22T01:54:35.076Z,0.00
2019-05-22T01:55:35.069Z,0.00
2019-05-22T01:56:35.060Z,0.00
2019-05-22T01:57:35.051Z,0.00
2019-05-22T01:58:35.047Z,0.00
2019-05-22T01:59:35.038Z,0.00
2019-05-22T02:00:35.045Z,0.00
2019-05-22T02:01:35.031Z,0.00
2019-05-22T02:02:35.022Z,0.00
2019-05-22T02:03:35.015Z,0.00
2019-05-22T02:04:35.005Z,0.00
2019-05-22T02:05:35.011Z,0.00
2019-05-22T02:06:35.005Z,0.00
2019-05-22T02:07:34.990Z,0.00
2019-05-22T02:08:34.978Z,0.00
2019-05-22T02:09:34.973Z,0.00
2019-05-22T02:10:35.029Z,0.00
2019-05-22T02:11:34.964Z,0.00
2019-05-22T02:12:34.961Z,0.00
2019-05-22T02:13:34.956Z,0.00
2019-05-22T02:14:34.949Z,0.00
2019-05-22T02:15:34.940Z,0.00
2019-05-22T02:16:34.930Z,0.00
2019-05-22T02:17:34.924Z,0.00
2019-05-22T02:18:34.918Z,0.00
2019-05-22T02:19:34.910Z,0.00
2019-05-22T02:20:34.913Z,0.00
2019-05-22T02:21:34.907Z,0.00
2019-05-22T02:22:34.890Z,0.00
2019-05-22T02:23:34.884Z,0.00
2019-05-22T02:24:34.881Z,0.00
2019-05-22T02:25:34.876Z,0.00
2019-05-22T02:26:34.872Z,0.00
2019-05-22T02:27:34.864Z,0.00
2019-05-22T02:28:34.857Z,0.00
2019-05-22T02:29:34.850Z,0.00
2019-05-22T02:30:34.842Z,0.00
2019-05-22T02:31:34.836Z,0.00
2019-05-22T02:32:34.834Z,0.00
2019-05-22T02:33:34.829Z,0.00
2019-05-22T02:34:34.821Z,0.00
2019-05-22T02:35:34.813Z,0.00
2019-05-22T02:36:34.802Z,0.00
2019-05-22T02:37:34.795Z,0.00
2019-05-22T02:38:34.793Z,0.00
2019-05-22T02:39:34.787Z,0.00
2019-05-22T02:40:34.775Z,0.00
2019-05-22T02:41:34.769Z,0.00
2019-05-22T02:42:34.781Z,0.00
2019-05-22T02:43:34.759Z,0.00
2019-05-22T02:44:34.759Z,0.00
2019-05-22T02:45:34.748Z,0.00
2019-05-22T02:46:34.741Z,0.00
2019-05-22T02:47:34.734Z,0.00
2019-05-22T02:48:34.723Z,0.00
2019-05-22T02:49:34.715Z,0.00
2019-05-22T02:50:34.712Z,0.00
2019-05-22T02:51:34.706Z,0.00
2019-05-22T02:52:34.705Z,0.00
2019-05-22T02:53:34.698Z,0.00
2019-05-22T02:54:34.688Z,0.00
2019-05-22T02:55:34.682Z,0.00
2019-05-22T02:56:34.678Z,0.00
2019-05-22T02:57:34.672Z,0.00
2019-05-22T02:58:34.674Z,0.00
2019-05-22T02:59:34.663Z,0.00
2019-05-22T03:00:34.646Z,0.00
2019-05-22T03:01:34.638Z,0.00
2019-05-22T03:02:34.633Z,0.00
2019-05-22T03:03:34.626Z,0.00
2019-05-22T03:04:34.627Z,0.00
2019-05-22T03:05:34.623Z,0.00
2019-05-22T03:06:34.613Z,0.00
2019-05-22T03:07:34.607Z,0.00
2019-05-22T03:08:34.598Z,0.00
2019-05-22T03:09:34.592Z,0.00
2019-05-22T03:10:34.588Z,0.00
2019-05-22T03:11:35.352Z,0.00
2019-05-22T03:12:34.606Z,0.00
2019-05-22T03:13:34.569Z,0.00
2019-05-22T03:14:34.557Z,0.00
2019-05-22T03:15:34.550Z,0.00
2019-05-22T03:16:34.547Z,0.00
2019-05-22T03:17:34.542Z,0.00
2019-05-22T03:18:34.534Z,0.00
2019-05-22T03:19:34.527Z,0.00
2019-05-22T03:20:34.518Z,0.00
2019-05-22T03:21:34.511Z,0.00
2019-05-22T03:22:34.506Z,0.00
2019-05-22T03:23:34.504Z,0.00
2019-05-22T03:24:34.497Z,0.00
2019-05-22T03:25:34.492Z,0.00
2019-05-22T03:26:34.480Z,0.00
2019-05-22T03:27:34.474Z,0.00
2019-05-22T03:28:34.487Z,0.00
2019-05-22T03:29:34.465Z,0.00
2019-05-22T03:30:34.459Z,0.00
2019-05-22T03:31:34.449Z,0.00
2019-05-22T03:32:34.440Z,0.00
2019-05-22T03:33:34.438Z,0.00
2019-05-22T03:34:34.427Z,0.00
2019-05-22T03:35:34.432Z,0.00
2019-05-22T03:36:34.416Z,0.00
2019-05-22T03:37:34.413Z,0.00
2019-05-22T03:38:34.418Z,0.00
2019-05-22T03:39:34.398Z,0.00
2019-05-22T03:40:34.391Z,0.00
2019-05-22T03:41:34.382Z,0.00
2019-05-22T03:42:34.380Z,5.63
2019-05-22T03:43:34.372Z,5.63
2019-05-22T03:44:34.361Z,5.63
2019-05-22T03:45:34.357Z,5.63
2019-05-22T03:46:34.347Z,5.63
2019-05-22T03:47:34.344Z,5.63
2019-05-22T03:48:34.340Z,5.63
2019-05-22T03:49:34.333Z,5.63
2019-05-22T03:50:34.323Z,5.63
2019-05-22T03:51:34.318Z,5.63
2019-05-22T03:52:34.313Z,5.63
2019-05-22T03:53:34.308Z,5.63
2019-05-22T03:54:34.299Z,5.63
2019-05-22T03:55:34.292Z,5.63
2019-05-22T03:56:34.284Z,5.63
2019-05-22T03:57:34.277Z,11.25
2019-05-22T03:58:34.367Z,11.25
2019-05-22T03:59:34.265Z,11.25
2019-05-22T04:00:34.256Z,11.25
2019-05-22T04:01:34.248Z,11.25
2019-05-22T04:02:34.247Z,11.25
2019-05-22T04:03:34.238Z,11.25
2019-05-22T04:04:34.235Z,11.25
2019-05-22T04:05:34.237Z,11.25
2019-05-22T04:06:34.223Z,11.25
2019-05-22T04:07:34.215Z,11.25
2019-05-22T04:08:34.207Z,11.25
2019-05-22T04:09:34.212Z,11.25
2019-05-22T04:10:34.190Z,11.25
2019-05-22T04:11:34.185Z,5.63
2019-05-22T04:12:34.181Z,5.63
2019-05-22T04:13:34.175Z,5.63
2019-05-22T04:14:34.165Z,5.63
2019-05-22T04:15:34.156Z,5.63
2019-05-22T04:16:34.155Z,5.63
2019-05-22T04:17:34.150Z,11.25
2019-05-22T04:18:34.145Z,11.25
2019-05-22T04:19:48.569Z,11.25
2019-05-22T04:20:34.128Z,11.25
2019-05-22T04:21:34.122Z,11.25
2019-05-22T04:22:34.116Z,11.25
2019-05-22T04:23:34.110Z,11.25
2019-05-22T04:24:34.106Z,11.25
2019-05-22T04:25:34.100Z,11.25
2019-05-22T04:26:34.090Z,16.88
2019-05-22T04:27:34.087Z,16.88
2019-05-22T04:28:34.073Z,16.88
2019-05-22T04:29:34.071Z,16.88
2019-05-22T04:30:34.067Z,16.88
2019-05-22T04:31:34.057Z,16.88
2019-05-22T04:32:34.048Z,16.88
2019-05-22T04:33:34.049Z,16.88
2019-05-22T04:34:34.037Z,16.88
2019-05-22T04:35:34.034Z,16.88
2019-05-22T04:36:34.027Z,16.88
2019-05-22T04:37:34.026Z,16.88
2019-05-22T04:38:34.016Z,16.88
2019-05-22T04:39:34.009Z,16.88
2019-05-22T04:40:33.999Z,22.50
2019-05-22T04:41:33.999Z,22.50
2019-05-22T04:42:33.986Z,22.50
2019-05-22T04:43:34.062Z,22.50
2019-05-22T04:44:33.975Z,22.50
2019-05-22T04:45:33.969Z,22.50
2019-05-22T04:46:33.957Z,22.50
2019-05-22T04:47:33.956Z,28.13
2019-05-22T04:48:33.950Z,28.13
2019-05-22T04:49:33.944Z,28.13
2019-05-22T04:50:33.984Z,22.50
2019-05-22T04:51:33.936Z,22.50
2019-05-22T04:52:33.923Z,22.50
2019-05-22T04:53:33.916Z,22.50
2019-05-22T04:54:33.906Z,28.13
2019-05-22T04:55:33.903Z,28.13
2019-05-22T04:56:33.898Z,28.13
2019-05-22T04:57:33.893Z,33.75
2019-05-22T04:58:33.891Z,39.38
2019-05-22T04:59:33.881Z,39.38
2019-05-22T05:00:33.873Z,45.00
2019-05-22T05:01:33.869Z,45.00
2019-05-22T05:02:33.867Z,50.63
2019-05-22T05:03:33.856Z,50.63
2019-05-22T05:04:33.845Z,50.63
2019-05-22T05:05:33.842Z,50.63
2019-05-22T05:06:33.841Z,50.63
2019-05-22T05:07:33.821Z,50.63
2019-05-22T05:08:33.823Z,50.63
2019-05-22T05:09:33.815Z,56.25
2019-05-22T05:10:33.812Z,61.88
2019-05-22T05:11:33.802Z,56.25
2019-05-22T05:12:33.793Z,56.25
2019-05-22T05:13:33.835Z,56.25
2019-05-22T05:14:33.780Z,56.25
2019-05-22T05:15:36.774Z,61.88
2019-05-22T05:16:33.773Z,61.88
2019-05-22T05:17:33.767Z,56.25
2019-05-22T05:18:33.757Z,61.88
2019-05-22T05:19:33.751Z,61.88
2019-05-22T05:20:33.750Z,61.88
2019-05-22T05:21:33.740Z,61.88
2019-05-22T05:22:33.735Z,61.88
2019-05-22T05:23:33.725Z,61.88
2019-05-22T05:24:33.714Z,67.50
2019-05-22T05:25:33.709Z,67.50
2019-05-22T05:26:33.703Z,61.88
2019-05-22T05:27:33.695Z,67.50
2019-05-22T05:28:33.744Z,67.50
2019-05-22T05:29:33.688Z,67.50
2019-05-22T05:30:33.686Z,67.50
2019-05-22T05:31:33.676Z,67.50
2019-05-22T05:32:33.672Z,67.50
2019-05-22T05:33:33.662Z,67.50
2019-05-22T05:34:33.659Z,73.13
2019-05-22T05:35:33.654Z,73.13
2019-05-22T05:36:33.645Z,73.13
2019-05-22T05:37:33.636Z,73.13
2019-05-22T05:38:33.626Z,73.13
2019-05-22T05:39:33.620Z,78.75
2019-05-22T05:40:33.635Z,78.75
2019-05-22T05:41:33.614Z,78.75
2019-05-22T05:42:33.607Z,78.75
2019-05-22T05:43:33.601Z,78.75
2019-05-22T05:44:33.589Z,78.75
2019-05-22T05:45:33.585Z,78.75
2019-05-22T05:46:33.579Z,78.75
2019-05-22T05:47:33.575Z,84.38
2019-05-22T05:48:33.571Z,84.38
2019-05-22T05:49:33.565Z,90.00
2019-05-22T05:50:39.562Z,95.63
2019-05-22T05:51:33.550Z,95.63
2019-05-22T05:52:33.546Z,101.25
2019-05-22T05:53:33.541Z,101.25
2019-05-22T05:54:33.533Z,101.25
2019-05-22T05:55:33.527Z,101.25
2019-05-22T05:56:33.517Z,101.25
2019-05-22T05:57:33.509Z,101.25
2019-05-22T05:58:33.506Z,101.25
2019-05-22T05:59:33.499Z,101.25
2019-05-22T06:00:33.496Z,101.25
2019-05-22T06:01:33.496Z,106.88
2019-05-22T06:02:33.483Z,101.25
2019-05-22T06:03:33.475Z,101.25
2019-05-22T06:04:35.121Z,101.25
2019-05-22T06:05:33.460Z,101.25
2019-05-22T06:06:33.461Z,101.25
2019-05-22T06:07:33.449Z,101.25
2019-05-22T06:08:33.441Z,101.25
2019-05-22T06:09:33.434Z,101.25
2019-05-22T06:10:33.433Z,95.63
2019-05-22T06:11:33.432Z,95.63
2019-05-22T06:12:33.424Z,95.63
2019-05-22T06:13:33.421Z,101.25
2019-05-22T06:14:33.412Z,101.25
2019-05-22T06:15:45.915Z,95.63
2019-05-22T06:16:33.396Z,95.63
2019-05-22T06:17:33.389Z,95.63
2019-05-22T06:18:33.382Z,95.63
2019-05-22T06:19:33.372Z,101.25
2019-05-22T06:20:33.374Z,106.88
2019-05-22T06:21:33.370Z,106.88
2019-05-22T06:22:33.356Z,106.88
2019-05-22T06:23:33.350Z,106.88
2019-05-22T06:24:33.347Z,112.50
2019-05-22T06:25:33.347Z,106.88
2019-05-22T06:26:33.340Z,112.50
2019-05-22T06:27:33.334Z,118.13
2019-05-22T06:28:33.323Z,118.13
2019-05-22T06:29:33.316Z,112.50
2019-05-22T06:30:33.310Z,118.13
2019-05-22T06:31:33.311Z,123.75
2019-05-22T06:32:33.302Z,129.38
2019-05-22T06:33:33.295Z,129.38
2019-05-22T06:34:33.289Z,118.13
2019-05-22T06:35:33.354Z,112.50
2019-05-22T06:36:33.271Z,112.50
2019-05-22T06:37:33.265Z,118.13
2019-05-22T06:38:33.277Z,118.13
2019-05-22T06:39:33.257Z,118.13
2019-05-22T06:40:33.246Z,123.75
2019-05-22T06:41:33.276Z,123.75
2019-05-22T06:42:33.238Z,123.75
2019-05-22T06:43:33.234Z,135.00
2019-05-22T06:44:33.239Z,140.63
2019-05-22T06:45:35.601Z,151.88
2019-05-22T06:46:33.220Z,163.13
2019-05-22T06:47:33.211Z,174.38
2019-05-22T06:48:33.290Z,174.38
2019-05-22T06:49:33.219Z,174.38
2019-05-22T06:50:33.188Z,168.75
2019-05-22T06:51:33.182Z,180.00
2019-05-22T06:52:33.180Z,213.75
2019-05-22T06:53:33.174Z,230.63
2019-05-22T06:54:33.165Z,230.63
2019-05-22T06:55:33.158Z,213.75
2019-05-22T06:56:33.157Z,202.50
2019-05-22T06:57:33.153Z,196.88
2019-05-22T06:58:33.147Z,196.88
2019-05-22T06:59:33.142Z,213.75
2019-05-22T07:00:33.131Z,225.00
2019-05-22T07:01:33.127Z,230.63
2019-05-22T07:02:33.119Z,236.25
2019-05-22T07:03:33.111Z,236.25
2019-05-22T07:04:33.111Z,236.25
2019-05-22T07:05:33.104Z,230.63
2019-05-22T07:06:33.110Z,219.38
2019-05-22T07:07:33.094Z,213.75
2019-05-22T07:08:33.087Z,202.50
2019-05-22T07:09:33.083Z,191.25
2019-05-22T07:10:33.080Z,185.63
2019-05-22T07:11:33.073Z,191.25
2019-05-22T07:12:33.066Z,196.88
2019-05-22T07:13:33.059Z,202.50
2019-05-22T07:14:33.053Z,202.50
2019-05-22T07:15:33.048Z,213.75
2019-05-22T07:16:33.043Z,213.75
2019-05-22T07:17:33.039Z,213.75
2019-05-22T07:18:33.042Z,225.00
2019-05-22T07:19:33.031Z,230.63
2019-05-22T07:20:33.028Z,230.63
2019-05-22T07:21:34.137Z,230.63
2019-05-22T07:22:33.011Z,225.00
2019-05-22T07:23:33.016Z,219.38
2019-05-22T07:24:33.005Z,208.13
2019-05-22T07:25:33.091Z,196.88
2019-05-22T07:26:32.991Z,191.25
2019-05-22T07:27:32.985Z,202.50
2019-05-22T07:28:32.983Z,196.88
2019-05-22T07:29:32.981Z,191.25
2019-05-22T07:30:32.973Z,191.25
2019-05-22T07:31:32.966Z,185.63
2019-05-22T07:32:32.959Z,185.63
2019-05-22T07:33:32.951Z,196.88
2019-05-22T07:34:33.004Z,213.75
2019-05-22T07:35:46.008Z,225.00
2019-05-22T07:36:32.941Z,213.75
2019-05-22T07:37:32.938Z,208.13
2019-05-22T07:38:32.936Z,202.50
2019-05-22T07:39:32.932Z,208.13
2019-05-22T07:40:32.935Z,213.75
2019-05-22T07:41:32.918Z,213.75
2019-05-22T07:42:32.918Z,213.75
2019-05-22T07:43:32.909Z,219.38
2019-05-22T07:44:32.897Z,230.63
2019-05-22T07:45:32.895Z,236.25
2019-05-22T07:46:32.888Z,236.25
2019-05-22T07:47:32.886Z,241.88
2019-05-22T07:48:32.885Z,247.50
2019-05-22T07:49:32.887Z,258.75
2019-05-22T07:50:32.878Z,264.38
2019-05-22T07:51:32.867Z,264.38
2019-05-22T07:52:32.863Z,264.38
2019-05-22T07:53:32.854Z,258.75
2019-05-22T07:54:32.853Z,264.38
2019-05-22T07:55:32.851Z,270.00
2019-05-22T07:56:32.845Z,275.63
2019-05-22T07:57:32.840Z,281.25
2019-05-22T07:58:32.842Z,298.13
2019-05-22T07:59:32.824Z,309.38
2019-05-22T08:00:32.827Z,309.38
2019-05-22T08:01:32.823Z,331.88
2019-05-22T08:02:32.813Z,371.25
2019-05-22T08:03:32.809Z,405.00
2019-05-22T08:04:32.799Z,427.50
2019-05-22T08:05:32.797Z,427.50
2019-05-22T08:06:32.792Z,416.25
2019-05-22T08:07:32.787Z,405.00
2019-05-22T08:08:32.787Z,416.25
2019-05-22T08:09:32.783Z,416.25
2019-05-22T08:10:32.779Z,438.75
2019-05-22T08:11:32.775Z,472.50
2019-05-22T08:12:32.766Z,478.13
2019-05-22T08:13:32.764Z,483.75
2019-05-22T08:14:32.762Z,500.63
2019-05-22T08:15:32.756Z,500.63
2019-05-22T08:16:32.750Z,528.75
2019-05-22T08:17:32.746Z,540.00
2019-05-22T08:18:32.739Z,585.00
2019-05-22T08:19:32.736Z,630.00
2019-05-22T08:20:32.735Z,635.63
2019-05-22T08:21:32.732Z,658.13
2019-05-22T08:22:32.728Z,635.63
2019-05-22T08:23:32.727Z,658.13
2019-05-22T08:24:32.717Z,720.00
2019-05-22T08:25:32.718Z,759.38
2019-05-22T08:26:32.714Z,832.50
2019-05-22T08:27:32.709Z,810.00
2019-05-22T08:28:32.711Z,804.38
2019-05-22T08:29:32.708Z,731.25
2019-05-22T08:30:32.702Z,708.75
2019-05-22T08:31:32.698Z,686.25
2019-05-22T08:32:32.699Z,663.75
2019-05-22T08:33:32.698Z,691.88
2019-05-22T08:34:32.692Z,781.88
2019-05-22T08:35:32.692Z,838.13
2019-05-22T08:36:32.683Z,843.75
2019-05-22T08:37:32.679Z,978.75
2019-05-22T08:38:32.681Z,1192.50
2019-05-22T08:39:32.674Z,1389.38
2019-05-22T08:40:32.698Z,1513.13
2019-05-22T08:41:32.720Z,1153.13
2019-05-22T08:42:35.414Z,1096.88
2019-05-22T08:43:49.549Z,1125.00
2019-05-22T08:44:32.670Z,1327.50
2019-05-22T08:45:32.670Z,1057.50
2019-05-22T08:46:32.675Z,776.25
2019-05-22T08:47:32.673Z,680.63
2019-05-22T08:48:32.672Z,641.25
2019-05-22T08:49:32.668Z,618.75
2019-05-22T08:50:32.666Z,630.00
2019-05-22T08:51:32.663Z,675.00
2019-05-22T08:52:32.681Z,669.38
2019-05-22T08:53:46.145Z,708.75
2019-05-22T08:54:32.666Z,821.25
2019-05-22T08:55:32.664Z,883.13
2019-05-22T08:56:32.662Z,1001.25
2019-05-22T08:57:32.658Z,1203.75
2019-05-22T08:58:32.664Z,1119.38
2019-05-22T08:59:32.660Z,905.63
2019-05-22T09:00:32.664Z,821.25
2019-05-22T09:01:32.669Z,776.25
2019-05-22T09:02:32.661Z,753.75
2019-05-22T09:03:32.659Z,708.75
2019-05-22T09:04:32.664Z,731.25
2019-05-22T09:05:32.664Z,838.13
2019-05-22T09:06:32.673Z,877.50
2019-05-22T09:07:32.661Z,933.75
2019-05-22T09:08:32.721Z,928.13
2019-05-22T09:09:32.657Z,1029.38
2019-05-22T09:10:32.667Z,1057.50
2019-05-22T09:11:32.658Z,1023.75
2019-05-22T09:12:32.663Z,1108.13
2019-05-22T09:13:32.667Z,1203.75
2019-05-22T09:14:32.661Z,1524.38
2019-05-22T09:15:32.660Z,2553.75
2019-05-22T09:16:32.660Z,4111.88
2019-05-22T09:17:32.660Z,2480.63
2019-05-22T09:18:32.663Z,1929.38
2019-05-22T09:19:32.666Z,2210.63
2019-05-22T09:20:48.259Z,1743.75
2019-05-22T09:21:32.663Z,3403.13
2019-05-22T09:22:40.798Z,4798.13
2019-05-22T09:23:32.674Z,4145.63
2019-05-22T09:24:32.732Z,3926.25
2019-05-22T09:25:32.689Z,2210.63
2019-05-22T09:26:32.703Z,1130.63
2019-05-22T09:27:32.690Z,1423.13
2019-05-22T09:28:32.694Z,1175.63
2019-05-22T09:29:32.740Z,1181.25
2019-05-22T09:30:32.703Z,4550.63
2019-05-22T09:31:32.704Z,4348.13
2019-05-22T09:32:32.716Z,4528.13
2019-05-22T09:33:32.722Z,4663.13
2019-05-22T09:34:32.726Z,4713.75
2019-05-22T09:35:32.731Z,4753.13
2019-05-22T09:36:33.564Z,1417.50
2019-05-22T09:37:32.756Z,5056.88
2019-05-22T09:38:32.759Z,2250.00
2019-05-22T09:39:32.765Z,1220.63
2019-05-22T09:40:32.774Z,1243.13
2019-05-22T09:41:32.779Z,1873.13
2019-05-22T09:42:32.788Z,4843.13
2019-05-22T09:43:32.802Z,933.75
2019-05-22T09:44:32.811Z,759.38
2019-05-22T09:45:32.847Z,736.88
2019-05-22T09:46:32.827Z,776.25
2019-05-22T09:47:32.836Z,866.25
2019-05-22T09:48:32.839Z,990.00
2019-05-22T09:49:32.848Z,1243.13
2019-05-22T09:50:32.860Z,1996.88
2019-05-22T09:51:32.869Z,1580.63
2019-05-22T09:52:32.871Z,4545.00
2019-05-22T09:53:32.880Z,4314.38
2019-05-22T09:54:32.889Z,2570.63
2019-05-22T09:55:32.898Z,4275.00
2019-05-22T09:56:32.906Z,4224.38
2019-05-22T09:57:32.915Z,4185.00
2019-05-22T09:58:32.923Z,3825.00
2019-05-22T09:59:32.930Z,3465.00
2019-05-22T10:00:32.938Z,3324.38
2019-05-22T10:01:32.945Z,3206.25
2019-05-22T10:02:32.953Z,3330.00
2019-05-22T10:03:32.964Z,2120.63
2019-05-22T10:04:32.978Z,1856.25
2019-05-22T10:05:33.048Z,3166.88
2019-05-22T10:06:32.995Z,3105.00
2019-05-22T10:07:33.007Z,2975.63
2019-05-22T10:08:33.025Z,1338.75
2019-05-22T10:09:33.035Z,2064.38
2019-05-22T10:10:33.052Z,3183.75
2019-05-22T10:11:33.061Z,2351.25
2019-05-22T10:12:33.068Z,1732.50
2019-05-22T10:13:33.275Z,1653.75
2019-05-22T10:14:33.091Z,2137.50
2019-05-22T10:15:33.105Z,3189.38
2019-05-22T10:16:33.118Z,2671.88
2019-05-22T10:17:33.137Z,1698.75
2019-05-22T10:18:33.148Z,1451.25
2019-05-22T10:19:33.158Z,2148.75
2019-05-22T10:20:33.169Z,4381.88
2019-05-22T10:21:33.178Z,5355.00
2019-05-22T10:22:33.196Z,4882.50
2019-05-22T10:23:33.207Z,4246.88
2019-05-22T10:24:33.218Z,4235.63
2019-05-22T10:25:33.231Z,4612.50
2019-05-22T10:26:33.242Z,3847.50
2019-05-22T10:27:33.255Z,4235.63
2019-05-22T10:28:33.276Z,4055.63
2019-05-22T10:29:33.289Z,4516.88
2019-05-22T10:30:33.300Z,4387.50
2019-05-22T10:31:33.306Z,4516.88
2019-05-22T10:32:33.316Z,4173.75
2019-05-22T10:33:33.331Z,3976.88
2019-05-22T10:34:33.346Z,4297.50
2019-05-22T10:35:33.362Z,4646.25
2019-05-22T10:36:33.377Z,5276.25
2019-05-22T10:37:33.391Z,3301.88
2019-05-22T10:38:33.402Z,4826.25
2019-05-22T10:39:33.414Z,3296.25
2019-05-22T10:40:33.433Z,3543.75
2019-05-22T10:41:33.519Z,4713.75
2019-05-22T10:42:33.461Z,2660.63
2019-05-22T10:43:33.471Z,5056.88
2019-05-22T10:44:33.481Z,1035.00
2019-05-22T10:45:33.496Z,843.75
2019-05-22T10:46:33.507Z,1186.88
2019-05-22T10:47:33.521Z,911.25
2019-05-22T10:48:33.539Z,961.88
2019-05-22T10:49:33.550Z,1186.88
2019-05-22T10:50:33.578Z,5416.88
2019-05-22T10:51:33.579Z,1901.25
2019-05-22T10:52:33.585Z,1018.13
2019-05-22T10:53:34.510Z,1203.75
2019-05-22T10:54:33.609Z,5895.00
2019-05-22T10:55:33.621Z,5940.00
2019-05-22T10:56:33.628Z,1018.13
2019-05-22T10:57:33.640Z,1462.50
2019-05-22T10:58:33.647Z,5400.00
2019-05-22T10:59:33.656Z,3313.13
2019-05-22T11:00:33.671Z,2143.13
2019-05-22T11:01:37.277Z,3054.38
2019-05-22T11:02:33.693Z,5686.88
2019-05-22T11:03:33.704Z,1102.50
2019-05-22T11:04:33.705Z,855.00
2019-05-22T11:05:33.720Z,973.13
2019-05-22T11:06:33.787Z,911.25
2019-05-22T11:07:33.736Z,849.38
2019-05-22T11:08:34.566Z,1535.63
2019-05-22T11:09:33.758Z,1321.88
2019-05-22T11:10:33.764Z,3583.13
2019-05-22T11:11:33.772Z,1102.50
2019-05-22T11:12:33.784Z,1496.25
2019-05-22T11:13:34.506Z,4680.00
2019-05-22T11:14:33.799Z,1035.00
2019-05-22T11:15:33.805Z,1316.25
2019-05-22T11:16:33.840Z,5428.13
2019-05-22T11:17:33.825Z,5265.00
2019-05-22T11:18:33.829Z,2970.00
2019-05-22T11:19:33.835Z,1282.50
2019-05-22T11:20:33.847Z,1057.50
2019-05-22T11:21:33.855Z,984.38
2019-05-22T11:22:35.033Z,961.88
2019-05-22T11:23:50.627Z,922.50
2019-05-22T11:24:33.936Z,973.13
2019-05-22T11:25:33.878Z,849.38
2019-05-22T11:26:33.886Z,928.13
2019-05-22T11:27:33.893Z,1046.25
2019-05-22T11:28:33.987Z,871.88
2019-05-22T11:29:33.901Z,849.38
2019-05-22T11:30:33.911Z,945.00
2019-05-22T11:31:33.915Z,1136.25
2019-05-22T11:32:33.938Z,1096.88
2019-05-22T11:33:34.539Z,1147.50
2019-05-22T11:34:33.955Z,1057.50
2019-05-22T11:35:33.941Z,1125.00
2019-05-22T11:36:33.943Z,1057.50
2019-05-22T11:37:33.948Z,1040.63
2019-05-22T11:38:33.952Z,1141.88
2019-05-22T11:39:39.222Z,1035.00
2019-05-22T11:40:33.965Z,1029.38
2019-05-22T11:41:33.971Z,1102.50
2019-05-22T11:42:33.973Z,1063.13
2019-05-22T11:43:33.974Z,1102.50
2019-05-22T11:44:33.987Z,1018.13
2019-05-22T11:45:33.991Z,1035.00
2019-05-22T11:46:33.996Z,1029.38
2019-05-22T11:47:34.002Z,916.88
2019-05-22T11:48:34.003Z,939.38
2019-05-22T11:49:34.008Z,911.25
2019-05-22T11:50:34.012Z,928.13
2019-05-22T11:51:34.015Z,826.88
2019-05-22T11:52:34.027Z,810.00
2019-05-22T11:53:34.031Z,905.63
2019-05-22T11:54:34.032Z,821.25
2019-05-22T11:55:45.410Z,624.38
2019-05-22T11:56:34.034Z,579.38
2019-05-22T11:57:34.042Z,720.00
2019-05-22T11:58:34.057Z,804.38
2019-05-22T11:59:34.056Z,776.25
2019-05-22T12:00:34.051Z,781.88
2019-05-22T12:01:34.054Z,787.50
2019-05-22T12:02:34.062Z,832.50
2019-05-22T12:03:34.070Z,832.50
2019-05-22T12:04:47.261Z,787.50
2019-05-22T12:05:34.077Z,759.38
2019-05-22T12:06:34.087Z,742.50
2019-05-22T12:07:34.083Z,714.38
2019-05-22T12:08:34.087Z,630.00
2019-05-22T12:09:34.086Z,686.25
2019-05-22T12:10:34.093Z,708.75
2019-05-22T12:11:34.091Z,742.50
2019-05-22T12:12:35.404Z,759.38
2019-05-22T12:13:34.101Z,860.63
2019-05-22T12:14:34.098Z,731.25
2019-05-22T12:15:34.101Z,731.25
2019-05-22T12:16:34.108Z,950.63
2019-05-22T12:17:38.262Z,888.75
2019-05-22T12:18:34.115Z,815.63
2019-05-22T12:19:34.120Z,697.50
2019-05-22T12:20:34.116Z,697.50
2019-05-22T12:21:34.121Z,714.38
2019-05-22T12:22:34.119Z,742.50
2019-05-22T12:23:34.121Z,787.50
2019-05-22T12:24:37.251Z,776.25
2019-05-22T12:25:34.133Z,770.63
2019-05-22T12:26:34.146Z,731.25
2019-05-22T12:27:34.140Z,731.25
2019-05-22T12:28:34.138Z,759.38
2019-05-22T12:29:34.140Z,753.75
2019-05-22T12:30:34.148Z,736.88
2019-05-22T12:31:34.209Z,753.75
2019-05-22T12:32:34.165Z,787.50
2019-05-22T12:33:34.151Z,759.38
2019-05-22T12:34:34.152Z,630.00
2019-05-22T12:35:34.152Z,618.75
2019-05-22T12:36:34.158Z,613.13
2019-05-22T12:37:34.216Z,573.75
2019-05-22T12:38:34.167Z,630.00
2019-05-22T12:39:34.167Z,635.63
2019-05-22T12:40:34.163Z,652.50
2019-05-22T12:41:34.166Z,793.13
2019-05-22T12:42:34.173Z,849.38